sensor_id;sensor_type;location;lat;lon;timestamp;P1;durP1;ratioP1;P2;durP2;ratioP2
41255;SDS011;26989;45.524;10.938;2023-12-07T00:00:10;7.25;;;4.05;;
41255;SDS011;26989;45.524;10.938;2023-12-07T00:02:38;6.70;;;3.53;;
41255;SDS011;26989;45.524;10.938;2023-12-07T00:05:04;5.50;;;2.97;;
41255;SDS011;26989;45.524;10.938;2023-12-07T00:07:32;3.28;;;1.88;;
41255;SDS011;26989;45.524;10.938;2023-12-07T00:09:58;4.47;;;1.92;;
41255;SDS011;26989;45.524;10.938;2023-12-07T00:12:25;3.75;;;1.73;;
41255;SDS011;26989;45.524;10.938;2023-12-07T00:14:53;3.88;;;1.92;;
41255;SDS011;26989;45.524;10.938;2023-12-07T00:17:20;3.97;;;1.85;;
41255;SDS011;26989;45.524;10.938;2023-12-07T00:19:46;2.70;;;1.58;;
41255;SDS011;26989;45.524;10.938;2023-12-07T00:22:16;2.22;;;1.60;;
41255;SDS011;26989;45.524;10.938;2023-12-07T00:24:43;2.38;;;1.55;;
41255;SDS011;26989;45.524;10.938;2023-12-07T00:27:09;4.00;;;1.98;;
41255;SDS011;26989;45.524;10.938;2023-12-07T00:29:37;2.47;;;1.50;;
41255;SDS011;26989;45.524;10.938;2023-12-07T00:32:04;5.78;;;2.45;;
41255;SDS011;26989;45.524;10.938;2023-12-07T00:34:32;2.80;;;1.85;;
41255;SDS011;26989;45.524;10.938;2023-12-07T00:36:59;4.00;;;1.77;;
41255;SDS011;26989;45.524;10.938;2023-12-07T00:39:26;4.60;;;1.85;;
41255;SDS011;26989;45.524;10.938;2023-12-07T00:41:52;5.32;;;1.77;;
41255;SDS011;26989;45.524;10.938;2023-12-07T00:44:19;4.82;;;2.35;;
41255;SDS011;26989;45.524;10.938;2023-12-07T00:46:46;4.13;;;2.38;;
41255;SDS011;26989;45.524;10.938;2023-12-07T00:49:13;4.05;;;2.17;;
41255;SDS011;26989;45.524;10.938;2023-12-07T00:51:40;4.68;;;1.90;;
41255;SDS011;26989;45.524;10.938;2023-12-07T00:54:07;4.63;;;1.48;;
41255;SDS011;26989;45.524;10.938;2023-12-07T00:56:34;3.17;;;1.98;;
41255;SDS011;26989;45.524;10.938;2023-12-07T00:59:01;3.60;;;1.42;;
41255;SDS011;26989;45.524;10.938;2023-12-07T01:01:28;2.42;;;1.50;;
41255;SDS011;26989;45.524;10.938;2023-12-07T01:03:56;3.92;;;1.50;;
41255;SDS011;26989;45.524;10.938;2023-12-07T01:06:23;2.47;;;1.58;;
41255;SDS011;26989;45.524;10.938;2023-12-07T01:08:50;5.45;;;1.52;;
41255;SDS011;26989;45.524;10.938;2023-12-07T01:11:16;2.00;;;0.98;;
41255;SDS011;26989;45.524;10.938;2023-12-07T01:13:43;2.55;;;1.27;;
41255;SDS011;26989;45.524;10.938;2023-12-07T01:16:10;1.35;;;0.93;;
41255;SDS011;26989;45.524;10.938;2023-12-07T01:18:37;1.48;;;1.08;;
41255;SDS011;26989;45.524;10.938;2023-12-07T01:21:04;3.20;;;1.50;;
41255;SDS011;26989;45.524;10.938;2023-12-07T01:23:32;2.55;;;1.52;;
41255;SDS011;26989;45.524;10.938;2023-12-07T01:25:59;1.48;;;1.20;;
41255;SDS011;26989;45.524;10.938;2023-12-07T01:28:28;2.35;;;1.20;;
41255;SDS011;26989;45.524;10.938;2023-12-07T01:30:55;1.52;;;0.90;;
41255;SDS011;26989;45.524;10.938;2023-12-07T01:33:22;1.20;;;0.90;;
41255;SDS011;26989;45.524;10.938;2023-12-07T01:35:49;3.33;;;1.50;;
41255;SDS011;26989;45.524;10.938;2023-12-07T01:38:16;3.08;;;1.48;;
41255;SDS011;26989;45.524;10.938;2023-12-07T01:40:43;2.92;;;1.52;;
41255;SDS011;26989;45.524;10.938;2023-12-07T01:43:12;3.00;;;1.58;;
41255;SDS011;26989;45.524;10.938;2023-12-07T01:45:38;5.22;;;2.35;;
41255;SDS011;26989;45.524;10.938;2023-12-07T01:48:05;4.35;;;2.13;;
41255;SDS011;26989;45.524;10.938;2023-12-07T01:50:33;4.60;;;2.13;;
41255;SDS011;26989;45.524;10.938;2023-12-07T01:53:01;6.47;;;2.20;;
41255;SDS011;26989;45.524;10.938;2023-12-07T01:55:34;2.25;;;1.23;;
41255;SDS011;26989;45.524;10.938;2023-12-07T01:58:02;3.40;;;1.23;;
41255;SDS011;26989;45.524;10.938;2023-12-07T02:00:30;2.35;;;1.30;;
41255;SDS011;26989;45.524;10.938;2023-12-07T02:02:57;2.75;;;1.48;;
41255;SDS011;26989;45.524;10.938;2023-12-07T02:05:24;2.65;;;1.85;;
41255;SDS011;26989;45.524;10.938;2023-12-07T02:07:54;4.10;;;1.58;;
41255;SDS011;26989;45.524;10.938;2023-12-07T02:10:21;2.40;;;1.50;;
41255;SDS011;26989;45.524;10.938;2023-12-07T02:12:48;2.70;;;1.45;;
41255;SDS011;26989;45.524;10.938;2023-12-07T02:15:15;4.05;;;1.50;;
41255;SDS011;26989;45.524;10.938;2023-12-07T02:28:17;2.85;;;1.65;;
41255;SDS011;26989;45.524;10.938;2023-12-07T02:30:44;5.18;;;1.40;;
41255;SDS011;26989;45.524;10.938;2023-12-07T02:33:12;3.60;;;1.48;;
41255;SDS011;26989;45.524;10.938;2023-12-07T02:35:39;2.15;;;1.25;;
41255;SDS011;26989;45.524;10.938;2023-12-07T02:38:07;2.55;;;1.52;;
41255;SDS011;26989;45.524;10.938;2023-12-07T02:40:34;1.83;;;1.30;;
41255;SDS011;26989;45.524;10.938;2023-12-07T02:43:02;2.40;;;1.40;;
41255;SDS011;26989;45.524;10.938;2023-12-07T02:45:30;2.42;;;1.13;;
41255;SDS011;26989;45.524;10.938;2023-12-07T02:47:58;1.75;;;1.08;;
41255;SDS011;26989;45.524;10.938;2023-12-07T02:50:25;2.70;;;1.52;;
41255;SDS011;26989;45.524;10.938;2023-12-07T02:52:52;1.48;;;1.08;;
41255;SDS011;26989;45.524;10.938;2023-12-07T02:55:19;1.52;;;1.20;;
41255;SDS011;26989;45.524;10.938;2023-12-07T02:57:47;2.10;;;1.10;;
41255;SDS011;26989;45.524;10.938;2023-12-07T03:00:15;2.25;;;1.42;;
41255;SDS011;26989;45.524;10.938;2023-12-07T03:02:42;1.42;;;0.88;;
41255;SDS011;26989;45.524;10.938;2023-12-07T03:05:09;1.48;;;0.93;;
41255;SDS011;26989;45.524;10.938;2023-12-07T03:07:36;1.67;;;0.93;;
41255;SDS011;26989;45.524;10.938;2023-12-07T03:10:03;4.03;;;1.33;;
41255;SDS011;26989;45.524;10.938;2023-12-07T03:12:30;4.93;;;2.20;;
41255;SDS011;26989;45.524;10.938;2023-12-07T03:14:57;4.40;;;1.80;;
41255;SDS011;26989;45.524;10.938;2023-12-07T03:17:24;3.00;;;1.65;;
41255;SDS011;26989;45.524;10.938;2023-12-07T03:19:51;2.40;;;1.27;;
41255;SDS011;26989;45.524;10.938;2023-12-07T03:22:18;2.78;;;1.08;;
41255;SDS011;26989;45.524;10.938;2023-12-07T03:24:46;0.63;;;0.40;;
41255;SDS011;26989;45.524;10.938;2023-12-07T03:27:18;0.60;;;0.50;;
41255;SDS011;26989;45.524;10.938;2023-12-07T03:29:46;1.27;;;0.70;;
41255;SDS011;26989;45.524;10.938;2023-12-07T03:32:13;1.23;;;0.65;;
41255;SDS011;26989;45.524;10.938;2023-12-07T03:34:40;1.17;;;0.63;;
41255;SDS011;26989;45.524;10.938;2023-12-07T03:37:07;1.13;;;0.80;;
41255;SDS011;26989;45.524;10.938;2023-12-07T03:39:34;0.95;;;0.45;;
41255;SDS011;26989;45.524;10.938;2023-12-07T03:42:00;1.85;;;0.70;;
41255;SDS011;26989;45.524;10.938;2023-12-07T03:44:27;1.63;;;0.80;;
41255;SDS011;26989;45.524;10.938;2023-12-07T03:46:54;2.00;;;0.73;;
41255;SDS011;26989;45.524;10.938;2023-12-07T03:49:21;0.70;;;0.50;;
41255;SDS011;26989;45.524;10.938;2023-12-07T03:51:48;1.45;;;0.73;;
41255;SDS011;26989;45.524;10.938;2023-12-07T03:54:15;1.27;;;0.60;;
41255;SDS011;26989;45.524;10.938;2023-12-07T03:56:42;0.65;;;0.55;;
41255;SDS011;26989;45.524;10.938;2023-12-07T03:59:09;1.25;;;0.70;;
41255;SDS011;26989;45.524;10.938;2023-12-07T04:01:36;1.73;;;0.40;;
41255;SDS011;26989;45.524;10.938;2023-12-07T04:04:03;1.60;;;0.60;;
41255;SDS011;26989;45.524;10.938;2023-12-07T04:06:31;0.52;;;0.38;;
41255;SDS011;26989;45.524;10.938;2023-12-07T04:08:58;2.25;;;0.52;;
41255;SDS011;26989;45.524;10.938;2023-12-07T04:11:25;1.98;;;0.60;;
41255;SDS011;26989;45.524;10.938;2023-12-07T04:13:52;0.90;;;0.52;;
41255;SDS011;26989;45.524;10.938;2023-12-07T04:16:19;0.75;;;0.60;;
41255;SDS011;26989;45.524;10.938;2023-12-07T04:18:46;0.75;;;0.52;;
41255;SDS011;26989;45.524;10.938;2023-12-07T04:21:13;1.33;;;0.60;;
41255;SDS011;26989;45.524;10.938;2023-12-07T04:23:40;2.40;;;0.70;;
41255;SDS011;26989;45.524;10.938;2023-12-07T04:26:07;2.42;;;1.17;;
41255;SDS011;26989;45.524;10.938;2023-12-07T04:28:34;1.17;;;0.65;;
41255;SDS011;26989;45.524;10.938;2023-12-07T04:31:01;1.33;;;0.43;;
41255;SDS011;26989;45.524;10.938;2023-12-07T04:33:28;0.85;;;0.50;;
41255;SDS011;26989;45.524;10.938;2023-12-07T04:35:56;1.40;;;0.80;;
41255;SDS011;26989;45.524;10.938;2023-12-07T04:38:23;2.65;;;0.85;;
41255;SDS011;26989;45.524;10.938;2023-12-07T04:40:50;1.38;;;1.02;;
41255;SDS011;26989;45.524;10.938;2023-12-07T04:43:16;1.50;;;0.90;;
41255;SDS011;26989;45.524;10.938;2023-12-07T04:45:43;1.83;;;0.90;;
41255;SDS011;26989;45.524;10.938;2023-12-07T04:48:10;2.78;;;1.38;;
41255;SDS011;26989;45.524;10.938;2023-12-07T04:50:37;2.65;;;1.42;;
41255;SDS011;26989;45.524;10.938;2023-12-07T04:53:04;0.90;;;0.65;;
41255;SDS011;26989;45.524;10.938;2023-12-07T04:55:31;3.75;;;1.77;;
41255;SDS011;26989;45.524;10.938;2023-12-07T04:57:58;3.55;;;1.70;;
41255;SDS011;26989;45.524;10.938;2023-12-07T05:00:25;4.45;;;1.85;;
41255;SDS011;26989;45.524;10.938;2023-12-07T05:02:53;2.80;;;1.90;;
41255;SDS011;26989;45.524;10.938;2023-12-07T05:05:20;2.65;;;1.67;;
41255;SDS011;26989;45.524;10.938;2023-12-07T05:07:47;3.50;;;1.50;;
41255;SDS011;26989;45.524;10.938;2023-12-07T05:10:14;6.68;;;3.30;;
41255;SDS011;26989;45.524;10.938;2023-12-07T05:12:41;6.63;;;3.35;;
41255;SDS011;26989;45.524;10.938;2023-12-07T05:15:08;6.65;;;4.30;;
41255;SDS011;26989;45.524;10.938;2023-12-07T05:17:35;9.98;;;5.93;;
41255;SDS011;26989;45.524;10.938;2023-12-07T05:20:02;7.90;;;4.57;;
41255;SDS011;26989;45.524;10.938;2023-12-07T05:22:31;10.32;;;5.43;;
41255;SDS011;26989;45.524;10.938;2023-12-07T05:24:58;9.93;;;6.10;;
41255;SDS011;26989;45.524;10.938;2023-12-07T05:27:25;3.97;;;2.45;;
41255;SDS011;26989;45.524;10.938;2023-12-07T05:29:52;5.03;;;2.50;;
41255;SDS011;26989;45.524;10.938;2023-12-07T05:32:19;5.20;;;2.65;;
41255;SDS011;26989;45.524;10.938;2023-12-07T05:34:46;4.72;;;2.53;;
41255;SDS011;26989;45.524;10.938;2023-12-07T05:37:13;5.55;;;1.90;;
41255;SDS011;26989;45.524;10.938;2023-12-07T05:39:40;3.97;;;2.00;;
41255;SDS011;26989;45.524;10.938;2023-12-07T05:42:07;7.50;;;3.67;;
41255;SDS011;26989;45.524;10.938;2023-12-07T05:44:34;4.88;;;2.75;;
41255;SDS011;26989;45.524;10.938;2023-12-07T05:47:01;5.18;;;2.80;;
41255;SDS011;26989;45.524;10.938;2023-12-07T05:49:28;5.03;;;2.72;;
41255;SDS011;26989;45.524;10.938;2023-12-07T05:51:55;10.07;;;4.00;;
41255;SDS011;26989;45.524;10.938;2023-12-07T05:54:22;6.40;;;3.38;;
41255;SDS011;26989;45.524;10.938;2023-12-07T05:56:49;7.38;;;2.80;;
41255;SDS011;26989;45.524;10.938;2023-12-07T05:59:16;5.40;;;2.85;;
41255;SDS011;26989;45.524;10.938;2023-12-07T06:01:43;6.28;;;3.83;;
41255;SDS011;26989;45.524;10.938;2023-12-07T06:04:10;8.32;;;4.55;;
41255;SDS011;26989;45.524;10.938;2023-12-07T06:06:39;17.95;;;7.70;;
41255;SDS011;26989;45.524;10.938;2023-12-07T06:09:06;14.02;;;5.30;;
41255;SDS011;26989;45.524;10.938;2023-12-07T06:11:34;10.10;;;4.93;;
41255;SDS011;26989;45.524;10.938;2023-12-07T06:14:01;8.88;;;5.03;;
41255;SDS011;26989;45.524;10.938;2023-12-07T06:16:29;8.68;;;4.90;;
41255;SDS011;26989;45.524;10.938;2023-12-07T06:18:56;10.30;;;4.15;;
41255;SDS011;26989;45.524;10.938;2023-12-07T06:21:23;10.70;;;4.95;;
41255;SDS011;26989;45.524;10.938;2023-12-07T06:23:51;7.68;;;4.15;;
41255;SDS011;26989;45.524;10.938;2023-12-07T06:26:19;8.10;;;3.40;;
41255;SDS011;26989;45.524;10.938;2023-12-07T06:28:46;6.15;;;3.25;;
41255;SDS011;26989;45.524;10.938;2023-12-07T06:31:13;12.23;;;3.80;;
41255;SDS011;26989;45.524;10.938;2023-12-07T06:33:46;5.35;;;3.47;;
41255;SDS011;26989;45.524;10.938;2023-12-07T06:36:20;6.95;;;3.10;;
41255;SDS011;26989;45.524;10.938;2023-12-07T06:38:47;10.20;;;3.58;;
41255;SDS011;26989;45.524;10.938;2023-12-07T06:41:15;8.80;;;4.10;;
41255;SDS011;26989;45.524;10.938;2023-12-07T06:43:42;9.30;;;5.35;;
41255;SDS011;26989;45.524;10.938;2023-12-07T06:46:11;6.53;;;3.70;;
41255;SDS011;26989;45.524;10.938;2023-12-07T06:48:39;9.93;;;7.63;;
41255;SDS011;26989;45.524;10.938;2023-12-07T06:51:07;4.80;;;3.55;;
41255;SDS011;26989;45.524;10.938;2023-12-07T06:53:34;15.23;;;4.60;;
41255;SDS011;26989;45.524;10.938;2023-12-07T06:56:01;8.43;;;4.22;;
41255;SDS011;26989;45.524;10.938;2023-12-07T06:58:28;9.18;;;5.13;;
41255;SDS011;26989;45.524;10.938;2023-12-07T07:00:55;8.20;;;4.45;;
41255;SDS011;26989;45.524;10.938;2023-12-07T07:03:22;8.10;;;3.85;;
41255;SDS011;26989;45.524;10.938;2023-12-07T07:05:49;7.63;;;3.00;;
41255;SDS011;26989;45.524;10.938;2023-12-07T07:08:16;13.63;;;3.80;;
41255;SDS011;26989;45.524;10.938;2023-12-07T07:10:44;7.13;;;3.38;;
41255;SDS011;26989;45.524;10.938;2023-12-07T07:13:13;11.38;;;3.92;;
41255;SDS011;26989;45.524;10.938;2023-12-07T07:15:42;8.10;;;4.00;;
41255;SDS011;26989;45.524;10.938;2023-12-07T07:18:10;7.50;;;4.07;;
41255;SDS011;26989;45.524;10.938;2023-12-07T07:20:37;6.15;;;3.42;;
41255;SDS011;26989;45.524;10.938;2023-12-07T07:23:04;10.82;;;2.85;;
41255;SDS011;26989;45.524;10.938;2023-12-07T07:25:31;16.73;;;5.03;;
41255;SDS011;26989;45.524;10.938;2023-12-07T07:27:58;11.18;;;4.65;;
41255;SDS011;26989;45.524;10.938;2023-12-07T07:30:25;9.38;;;3.88;;
41255;SDS011;26989;45.524;10.938;2023-12-07T07:32:52;9.85;;;4.20;;
41255;SDS011;26989;45.524;10.938;2023-12-07T07:35:19;11.13;;;5.78;;
41255;SDS011;26989;45.524;10.938;2023-12-07T07:37:46;11.57;;;5.05;;
41255;SDS011;26989;45.524;10.938;2023-12-07T07:40:13;10.20;;;5.15;;
41255;SDS011;26989;45.524;10.938;2023-12-07T07:42:40;14.30;;;4.90;;
41255;SDS011;26989;45.524;10.938;2023-12-07T07:45:07;11.52;;;4.85;;
41255;SDS011;26989;45.524;10.938;2023-12-07T07:47:35;7.97;;;3.85;;
41255;SDS011;26989;45.524;10.938;2023-12-07T07:50:04;9.68;;;3.80;;
41255;SDS011;26989;45.524;10.938;2023-12-07T07:52:32;9.73;;;5.18;;
41255;SDS011;26989;45.524;10.938;2023-12-07T07:55:01;13.07;;;5.88;;
41255;SDS011;26989;45.524;10.938;2023-12-07T07:57:30;9.27;;;4.95;;
41255;SDS011;26989;45.524;10.938;2023-12-07T07:59:57;18.25;;;7.03;;
41255;SDS011;26989;45.524;10.938;2023-12-07T08:02:24;9.55;;;5.05;;
41255;SDS011;26989;45.524;10.938;2023-12-07T08:04:51;10.55;;;5.68;;
41255;SDS011;26989;45.524;10.938;2023-12-07T08:07:18;12.10;;;4.65;;
41255;SDS011;26989;45.524;10.938;2023-12-07T08:09:45;9.50;;;4.18;;
41255;SDS011;26989;45.524;10.938;2023-12-07T08:12:12;9.15;;;4.88;;
41255;SDS011;26989;45.524;10.938;2023-12-07T08:14:39;10.85;;;4.22;;
41255;SDS011;26989;45.524;10.938;2023-12-07T08:17:06;12.52;;;5.20;;
41255;SDS011;26989;45.524;10.938;2023-12-07T08:19:33;15.15;;;6.07;;
41255;SDS011;26989;45.524;10.938;2023-12-07T08:22:00;12.07;;;6.68;;
41255;SDS011;26989;45.524;10.938;2023-12-07T08:24:27;15.55;;;8.90;;
41255;SDS011;26989;45.524;10.938;2023-12-07T08:26:54;12.35;;;7.60;;
41255;SDS011;26989;45.524;10.938;2023-12-07T08:29:20;10.30;;;6.15;;
41255;SDS011;26989;45.524;10.938;2023-12-07T08:31:47;11.35;;;5.47;;
41255;SDS011;26989;45.524;10.938;2023-12-07T08:34:14;11.45;;;4.88;;
41255;SDS011;26989;45.524;10.938;2023-12-07T08:36:41;12.98;;;5.93;;
41255;SDS011;26989;45.524;10.938;2023-12-07T08:39:08;10.32;;;5.50;;
41255;SDS011;26989;45.524;10.938;2023-12-07T08:41:36;11.40;;;7.10;;
41255;SDS011;26989;45.524;10.938;2023-12-07T08:44:03;12.88;;;6.97;;
41255;SDS011;26989;45.524;10.938;2023-12-07T08:46:31;15.13;;;7.43;;
41255;SDS011;26989;45.524;10.938;2023-12-07T08:48:58;13.70;;;6.93;;
41255;SDS011;26989;45.524;10.938;2023-12-07T08:51:25;19.35;;;9.70;;
41255;SDS011;26989;45.524;10.938;2023-12-07T08:53:52;24.15;;;9.55;;
41255;SDS011;26989;45.524;10.938;2023-12-07T08:56:21;24.08;;;9.07;;
41255;SDS011;26989;45.524;10.938;2023-12-07T08:58:48;18.02;;;9.07;;
41255;SDS011;26989;45.524;10.938;2023-12-07T09:01:16;17.38;;;9.38;;
41255;SDS011;26989;45.524;10.938;2023-12-07T09:03:57;18.30;;;8.90;;
41255;SDS011;26989;45.524;10.938;2023-12-07T09:06:24;21.58;;;11.02;;
41255;SDS011;26989;45.524;10.938;2023-12-07T09:08:51;25.20;;;12.00;;
41255;SDS011;26989;45.524;10.938;2023-12-07T09:11:19;20.27;;;9.85;;
41255;SDS011;26989;45.524;10.938;2023-12-07T09:13:46;24.20;;;14.30;;
41255;SDS011;26989;45.524;10.938;2023-12-07T09:16:13;27.05;;;13.93;;
41255;SDS011;26989;45.524;10.938;2023-12-07T09:18:41;45.97;;;16.92;;
41255;SDS011;26989;45.524;10.938;2023-12-07T09:21:09;53.45;;;20.15;;
41255;SDS011;26989;45.524;10.938;2023-12-07T09:23:36;24.27;;;14.95;;
41255;SDS011;26989;45.524;10.938;2023-12-07T09:26:03;22.13;;;12.23;;
41255;SDS011;26989;45.524;10.938;2023-12-07T09:28:31;23.83;;;12.80;;
41255;SDS011;26989;45.524;10.938;2023-12-07T09:30:59;21.13;;;12.05;;
41255;SDS011;26989;45.524;10.938;2023-12-07T09:33:27;20.17;;;11.90;;
41255;SDS011;26989;45.524;10.938;2023-12-07T09:35:54;20.90;;;12.30;;
41255;SDS011;26989;45.524;10.938;2023-12-07T09:38:21;21.98;;;12.55;;
41255;SDS011;26989;45.524;10.938;2023-12-07T09:40:51;20.48;;;13.10;;
41255;SDS011;26989;45.524;10.938;2023-12-07T09:43:19;23.70;;;12.50;;
41255;SDS011;26989;45.524;10.938;2023-12-07T09:45:47;20.17;;;12.57;;
41255;SDS011;26989;45.524;10.938;2023-12-07T09:48:15;21.38;;;13.02;;
41255;SDS011;26989;45.524;10.938;2023-12-07T09:50:43;23.48;;;13.25;;
41255;SDS011;26989;45.524;10.938;2023-12-07T09:53:12;21.17;;;13.00;;
41255;SDS011;26989;45.524;10.938;2023-12-07T09:55:41;26.13;;;14.18;;
41255;SDS011;26989;45.524;10.938;2023-12-07T09:58:09;23.42;;;13.95;;
41255;SDS011;26989;45.524;10.938;2023-12-07T10:00:39;25.00;;;13.65;;
41255;SDS011;26989;45.524;10.938;2023-12-07T10:03:09;24.27;;;15.05;;
41255;SDS011;26989;45.524;10.938;2023-12-07T10:05:53;23.67;;;13.83;;
41255;SDS011;26989;45.524;10.938;2023-12-07T10:08:25;26.60;;;14.82;;
41255;SDS011;26989;45.524;10.938;2023-12-07T10:11:09;23.75;;;14.38;;
41255;SDS011;26989;45.524;10.938;2023-12-07T10:13:38;23.58;;;13.07;;
41255;SDS011;26989;45.524;10.938;2023-12-07T10:16:11;22.15;;;13.65;;
41255;SDS011;26989;45.524;10.938;2023-12-07T10:18:43;26.15;;;14.75;;
41255;SDS011;26989;45.524;10.938;2023-12-07T10:21:11;22.25;;;12.90;;
41255;SDS011;26989;45.524;10.938;2023-12-07T10:23:40;22.10;;;13.52;;
41255;SDS011;26989;45.524;10.938;2023-12-07T10:26:10;22.05;;;13.55;;
41255;SDS011;26989;45.524;10.938;2023-12-07T10:28:39;22.13;;;13.77;;
41255;SDS011;26989;45.524;10.938;2023-12-07T10:31:10;23.55;;;11.77;;
41255;SDS011;26989;45.524;10.938;2023-12-07T10:33:37;21.95;;;12.90;;
41255;SDS011;26989;45.524;10.938;2023-12-07T10:36:09;23.55;;;13.05;;
41255;SDS011;26989;45.524;10.938;2023-12-07T10:38:38;24.75;;;13.27;;
41255;SDS011;26989;45.524;10.938;2023-12-07T10:41:09;23.05;;;13.88;;
41255;SDS011;26989;45.524;10.938;2023-12-07T10:43:42;26.13;;;13.80;;
41255;SDS011;26989;45.524;10.938;2023-12-07T10:46:14;25.85;;;14.02;;
41255;SDS011;26989;45.524;10.938;2023-12-07T10:48:46;24.90;;;13.85;;
41255;SDS011;26989;45.524;10.938;2023-12-07T10:51:38;23.83;;;14.27;;
41255;SDS011;26989;45.524;10.938;2023-12-07T10:54:19;24.48;;;13.98;;
41255;SDS011;26989;45.524;10.938;2023-12-07T10:56:52;21.58;;;13.18;;
41255;SDS011;26989;45.524;10.938;2023-12-07T10:59:25;21.52;;;13.35;;
41255;SDS011;26989;45.524;10.938;2023-12-07T11:02:00;23.27;;;14.43;;
41255;SDS011;26989;45.524;10.938;2023-12-07T11:04:31;25.77;;;14.75;;
41255;SDS011;26989;45.524;10.938;2023-12-07T11:07:00;25.00;;;14.90;;
41255;SDS011;26989;45.524;10.938;2023-12-07T11:09:35;28.08;;;14.35;;
41255;SDS011;26989;45.524;10.938;2023-12-07T11:14:43;25.65;;;14.65;;
41255;SDS011;26989;45.524;10.938;2023-12-07T11:17:11;27.83;;;16.33;;
41255;SDS011;26989;45.524;10.938;2023-12-07T11:19:45;26.48;;;15.63;;
41255;SDS011;26989;45.524;10.938;2023-12-07T11:22:16;28.13;;;14.10;;
41255;SDS011;26989;45.524;10.938;2023-12-07T11:24:53;25.25;;;15.15;;
41255;SDS011;26989;45.524;10.938;2023-12-07T11:27:30;19.85;;;11.02;;
41255;SDS011;26989;45.524;10.938;2023-12-07T11:30:01;31.95;;;15.57;;
41255;SDS011;26989;45.524;10.938;2023-12-07T11:32:30;25.35;;;14.95;;
41255;SDS011;26989;45.524;10.938;2023-12-07T11:35:04;26.75;;;16.30;;
41255;SDS011;26989;45.524;10.938;2023-12-07T11:38:15;26.85;;;15.15;;
41255;SDS011;26989;45.524;10.938;2023-12-07T11:40:40;23.05;;;14.18;;
41255;SDS011;26989;45.524;10.938;2023-12-07T11:43:30;26.10;;;14.73;;
41255;SDS011;26989;45.524;10.938;2023-12-07T11:46:07;27.15;;;14.98;;
41255;SDS011;26989;45.524;10.938;2023-12-07T11:48:36;28.23;;;14.50;;
41255;SDS011;26989;45.524;10.938;2023-12-07T11:51:07;25.77;;;13.82;;
41255;SDS011;26989;45.524;10.938;2023-12-07T11:53:37;28.40;;;15.05;;
41255;SDS011;26989;45.524;10.938;2023-12-07T11:56:11;24.58;;;13.85;;
41255;SDS011;26989;45.524;10.938;2023-12-07T11:58:48;27.65;;;15.35;;
41255;SDS011;26989;45.524;10.938;2023-12-07T12:01:18;23.20;;;14.10;;
41255;SDS011;26989;45.524;10.938;2023-12-07T12:03:54;25.73;;;15.40;;
41255;SDS011;26989;45.524;10.938;2023-12-07T12:06:25;26.70;;;15.70;;
41255;SDS011;26989;45.524;10.938;2023-12-07T12:08:55;22.63;;;14.90;;
41255;SDS011;26989;45.524;10.938;2023-12-07T12:11:23;23.85;;;14.68;;
41255;SDS011;26989;45.524;10.938;2023-12-07T12:13:51;25.90;;;15.02;;
41255;SDS011;26989;45.524;10.938;2023-12-07T12:16:21;26.83;;;15.18;;
41255;SDS011;26989;45.524;10.938;2023-12-07T12:18:50;24.45;;;14.63;;
41255;SDS011;26989;45.524;10.938;2023-12-07T12:21:17;27.00;;;15.50;;
41255;SDS011;26989;45.524;10.938;2023-12-07T12:23:46;42.60;;;15.85;;
41255;SDS011;26989;45.524;10.938;2023-12-07T12:26:17;28.65;;;15.48;;
41255;SDS011;26989;45.524;10.938;2023-12-07T12:28:46;25.33;;;15.90;;
41255;SDS011;26989;45.524;10.938;2023-12-07T12:31:14;25.10;;;14.90;;
41255;SDS011;26989;45.524;10.938;2023-12-07T12:33:43;24.63;;;15.20;;
41255;SDS011;26989;45.524;10.938;2023-12-07T12:36:11;29.88;;;15.02;;
41255;SDS011;26989;45.524;10.938;2023-12-07T12:38:41;27.13;;;15.95;;
41255;SDS011;26989;45.524;10.938;2023-12-07T12:41:10;26.52;;;15.43;;
41255;SDS011;26989;45.524;10.938;2023-12-07T12:43:40;28.92;;;16.30;;
41255;SDS011;26989;45.524;10.938;2023-12-07T12:46:10;26.73;;;15.82;;
41255;SDS011;26989;45.524;10.938;2023-12-07T12:51:26;35.00;;;18.10;;
41255;SDS011;26989;45.524;10.938;2023-12-07T12:53:56;34.83;;;19.63;;
41255;SDS011;26989;45.524;10.938;2023-12-07T12:56:26;27.98;;;17.63;;
41255;SDS011;26989;45.524;10.938;2023-12-07T12:58:56;32.58;;;18.85;;
41255;SDS011;26989;45.524;10.938;2023-12-07T13:01:31;29.35;;;18.90;;
41255;SDS011;26989;45.524;10.938;2023-12-07T13:04:00;28.73;;;18.88;;
41255;SDS011;26989;45.524;10.938;2023-12-07T13:06:27;33.55;;;19.20;;
41255;SDS011;26989;45.524;10.938;2023-12-07T13:08:58;37.80;;;19.73;;
41255;SDS011;26989;45.524;10.938;2023-12-07T13:11:30;34.22;;;20.08;;
41255;SDS011;26989;45.524;10.938;2023-12-07T13:13:58;32.47;;;20.77;;
41255;SDS011;26989;45.524;10.938;2023-12-07T13:16:35;35.13;;;19.63;;
41255;SDS011;26989;45.524;10.938;2023-12-07T13:19:06;32.45;;;19.83;;
41255;SDS011;26989;45.524;10.938;2023-12-07T13:21:34;35.60;;;20.55;;
41255;SDS011;26989;45.524;10.938;2023-12-07T13:24:03;35.00;;;20.10;;
41255;SDS011;26989;45.524;10.938;2023-12-07T13:26:35;34.28;;;19.95;;
41255;SDS011;26989;45.524;10.938;2023-12-07T13:29:02;34.65;;;20.60;;
41255;SDS011;26989;45.524;10.938;2023-12-07T13:31:29;33.67;;;20.52;;
41255;SDS011;26989;45.524;10.938;2023-12-07T13:33:58;31.25;;;19.35;;
41255;SDS011;26989;45.524;10.938;2023-12-07T13:36:37;40.72;;;20.38;;
41255;SDS011;26989;45.524;10.938;2023-12-07T13:39:04;32.92;;;18.35;;
41255;SDS011;26989;45.524;10.938;2023-12-07T13:41:34;30.88;;;19.15;;
41255;SDS011;26989;45.524;10.938;2023-12-07T13:44:04;37.95;;;20.35;;
41255;SDS011;26989;45.524;10.938;2023-12-07T13:46:32;33.92;;;20.13;;
41255;SDS011;26989;45.524;10.938;2023-12-07T13:49:01;35.70;;;19.83;;
41255;SDS011;26989;45.524;10.938;2023-12-07T13:51:31;37.45;;;21.63;;
41255;SDS011;26989;45.524;10.938;2023-12-07T13:54:00;39.95;;;20.67;;
41255;SDS011;26989;45.524;10.938;2023-12-07T13:56:27;38.10;;;21.58;;
41255;SDS011;26989;45.524;10.938;2023-12-07T13:58:57;31.90;;;20.48;;
41255;SDS011;26989;45.524;10.938;2023-12-07T14:01:25;37.75;;;21.95;;
41255;SDS011;26989;45.524;10.938;2023-12-07T14:03:57;36.27;;;20.73;;
41255;SDS011;26989;45.524;10.938;2023-12-07T14:06:31;33.13;;;20.80;;
41255;SDS011;26989;45.524;10.938;2023-12-07T14:09:01;37.78;;;21.67;;
41255;SDS011;26989;45.524;10.938;2023-12-07T14:11:29;35.70;;;20.98;;
41255;SDS011;26989;45.524;10.938;2023-12-07T14:13:57;32.95;;;20.98;;
41255;SDS011;26989;45.524;10.938;2023-12-07T14:16:27;34.60;;;19.60;;
41255;SDS011;26989;45.524;10.938;2023-12-07T14:19:15;41.80;;;22.88;;
41255;SDS011;26989;45.524;10.938;2023-12-07T14:21:43;41.03;;;20.05;;
41255;SDS011;26989;45.524;10.938;2023-12-07T14:24:21;40.17;;;21.20;;
41255;SDS011;26989;45.524;10.938;2023-12-07T14:26:49;36.78;;;19.92;;
41255;SDS011;26989;45.524;10.938;2023-12-07T14:29:17;32.00;;;19.58;;
41255;SDS011;26989;45.524;10.938;2023-12-07T14:31:53;34.85;;;20.55;;
41255;SDS011;26989;45.524;10.938;2023-12-07T14:34:29;32.58;;;19.73;;
41255;SDS011;26989;45.524;10.938;2023-12-07T14:39:34;41.75;;;28.52;;
41255;SDS011;26989;45.524;10.938;2023-12-07T14:42:07;45.10;;;26.67;;
41255;SDS011;26989;45.524;10.938;2023-12-07T14:44:38;43.65;;;24.33;;
41255;SDS011;26989;45.524;10.938;2023-12-07T14:47:08;34.28;;;21.13;;
41255;SDS011;26989;45.524;10.938;2023-12-07T14:49:36;35.30;;;20.20;;